Time;durP1;ratioP1;P1;durP2;ratioP2;P2;SDS_P1;SDS_P2;PMS_P1;PMS_P2;Temp;Humidity;BMP_temperature;BMP_pressure;BME280_temperature;BME280_humidity;BME280_pressure;Samples;Min_cycle;Max_cycle;Signal;HPM_P1;HPM_P2
2022/04/22 00:02:19;;;;;;;;;17.33;15.33;;;;;;;;5074566;28;45438;-72
2022/04/22 00:04:51;;;;;;;;;19.67;16.00;;;;;;;;5074937;28;45565;-71
2022/04/22 00:07:16;;;;;;;;;13.00;13.00;;;;;;;;5074092;28;45887;-72
2022/04/22 00:09:41;;;;;;;;;14.67;12.67;;;;;;;;5072830;28;47394;-70
2022/04/22 00:12:08;;;;;;;;;13.00;12.67;;;;;;;;5074095;28;45415;-72
2022/04/22 00:14:33;;;;;;;;;9.67;9.67;;;;;;;;5074932;28;45453;-73
2022/04/22 00:16:58;;;;;;;;;12.00;9.00;;;;;;;;5074310;28;45551;-73
2022/04/22 00:19:23;;;;;;;;;14.00;11.00;;;;;;;;5062771;28;45723;-74
2022/04/22 00:21:48;;;;;;;;;11.33;10.00;;;;;;;;5075416;27;45709;-71
2022/04/22 00:24:15;;;;;;;;;11.67;10.67;;;;;;;;5094656;27;45605;-73
2022/04/22 00:26:40;;;;;;;;;11.67;10.33;;;;;;;;5094511;27;45910;-71
2022/04/22 00:29:07;;;;;;;;;11.00;10.33;;;;;;;;5094409;27;45688;-70
2022/04/22 00:31:32;;;;;;;;;14.33;10.67;;;;;;;;5088303;27;45482;-71
2022/04/22 00:33:57;;;;;;;;;7.33;7.33;;;;;;;;5062501;28;45685;-71
2022/04/22 00:36:23;;;;;;;;;10.00;9.00;;;;;;;;5067918;28;45762;-70
2022/04/22 00:38:48;;;;;;;;;13.00;11.33;;;;;;;;5061040;28;45906;-72
2022/04/22 00:41:13;;;;;;;;;11.67;8.67;;;;;;;;5072602;28;45420;-70
2022/04/22 00:43:43;;;;;;;;;12.67;12.33;;;;;;;;5074214;28;45206;-71
2022/04/22 00:46:08;;;;;;;;;8.67;7.67;;;;;;;;5073932;27;45498;-72
2022/04/22 00:48:33;;;;;;;;;9.67;9.67;;;;;;;;5073925;28;45680;-69
2022/04/22 00:50:59;;;;;;;;;13.00;10.33;;;;;;;;5073975;27;45504;-71
2022/04/22 00:53:25;;;;;;;;;12.33;9.00;;;;;;;;5070999;27;45605;-71
2022/04/22 00:55:50;;;;;;;;;14.00;9.00;;;;;;;;5064202;28;45434;-70
2022/04/22 00:58:16;;;;;;;;;12.33;10.67;;;;;;;;5072144;27;45714;-70
2022/04/22 01:00:41;;;;;;;;;9.33;9.00;;;;;;;;5073583;27;45516;-70
2022/04/22 01:03:07;;;;;;;;;9.33;8.33;;;;;;;;5072303;28;45389;-71
2022/04/22 01:11:02;;;;;;;;;10.33;9.00;;;;;;;;5053420;28;45759;-71
2022/04/22 01:13:27;;;;;;;;;9.67;8.67;;;;;;;;5053007;28;45680;-71
2022/04/22 01:15:53;;;;;;;;;9.00;8.00;;;;;;;;5052712;28;45292;-70
2022/04/22 01:18:18;;;;;;;;;10.33;10.33;;;;;;;;5052829;28;45844;-70
2022/04/22 01:20:44;;;;;;;;;10.00;10.00;;;;;;;;5052786;28;45326;-72
2022/04/22 01:23:09;;;;;;;;;8.67;7.67;;;;;;;;5053544;28;45686;-71
2022/04/22 01:25:35;;;;;;;;;10.67;8.33;;;;;;;;5053181;28;45521;-72
2022/04/22 01:28:01;;;;;;;;;10.67;7.67;;;;;;;;5058372;28;45753;-70
2022/04/22 01:30:26;;;;;;;;;12.67;10.67;;;;;;;;5073294;27;45376;-73
2022/04/22 01:32:54;;;;;;;;;12.67;11.33;;;;;;;;5073056;28;45494;-71
2022/04/22 01:35:19;;;;;;;;;9.67;8.67;;;;;;;;5072895;28;45779;-71
2022/04/22 01:37:45;;;;;;;;;8.67;8.67;;;;;;;;5072680;27;46764;-72
2022/04/22 01:40:11;;;;;;;;;9.33;8.67;;;;;;;;5071758;27;45313;-72
2022/04/22 01:42:36;;;;;;;;;10.00;7.67;;;;;;;;5072548;27;45595;-72
2022/04/22 01:45:02;;;;;;;;;10.67;9.33;;;;;;;;5059275;22;45813;-78
2022/04/22 01:47:29;;;;;;;;;10.00;8.00;;;;;;;;4992826;28;46217;-82
2022/04/22 01:49:54;;;;;;;;;9.00;9.00;;;;;;;;4996390;28;45558;-82
2022/04/22 01:52:20;;;;;;;;;11.67;9.00;;;;;;;;4995080;28;45708;-85
2022/04/22 01:54:46;;;;;;;;;7.67;7.67;;;;;;;;4993281;28;47012;-83
2022/04/22 01:57:11;;;;;;;;;7.67;7.67;;;;;;;;4991125;28;45881;-82
2022/04/22 01:59:36;;;;;;;;;6.67;6.67;;;;;;;;4971710;28;45503;-82
2022/04/22 02:02:01;;;;;;;;;8.67;8.67;;;;;;;;4969164;28;45502;-76
2022/04/22 02:04:27;;;;;;;;;11.33;8.33;;;;;;;;4976737;28;45405;-81
2022/04/22 02:06:52;;;;;;;;;10.00;9.00;;;;;;;;4972332;28;47095;-78
2022/04/22 02:09:17;;;;;;;;;8.00;8.00;;;;;;;;4968236;28;45807;-76
2022/04/22 02:11:43;;;;;;;;;9.67;9.33;;;;;;;;4970215;28;45904;-78
2022/04/22 02:14:08;;;;;;;;;10.33;10.33;;;;;;;;4972903;28;45638;-83
2022/04/22 02:16:33;;;;;;;;;10.00;8.00;;;;;;;;4978330;28;46173;-81
2022/04/22 02:18:59;;;;;;;;;10.00;8.33;;;;;;;;4973170;28;45361;-77
2022/04/22 02:21:24;;;;;;;;;8.00;7.33;;;;;;;;4970421;27;45622;-78
2022/04/22 02:23:52;;;;;;;;;10.33;10.33;;;;;;;;4971452;28;45360;-83
2022/04/22 02:26:17;;;;;;;;;10.33;9.33;;;;;;;;4977079;28;46265;-84
2022/04/22 02:28:43;;;;;;;;;12.67;9.00;;;;;;;;4979108;28;45244;-82
2022/04/22 02:31:09;;;;;;;;;11.67;11.33;;;;;;;;4991686;28;45318;-82
2022/04/22 02:33:36;;;;;;;;;8.67;8.67;;;;;;;;4995618;28;45921;-84
2022/04/22 02:36:02;;;;;;;;;13.33;11.00;;;;;;;;4974270;28;47105;-82
2022/04/22 02:38:28;;;;;;;;;13.67;11.67;;;;;;;;4974447;28;45397;-83
2022/04/22 02:46:30;;;;;;;;;8.33;8.33;;;;;;;;4992176;28;45860;-83
2022/04/22 02:49:00;;;;;;;;;9.33;9.33;;;;;;;;4993919;28;45527;-82
2022/04/22 02:51:26;;;;;;;;;11.33;10.67;;;;;;;;4996822;28;45396;-83
2022/04/22 02:53:52;;;;;;;;;11.33;9.00;;;;;;;;4997704;28;45341;-83
2022/04/22 02:56:18;;;;;;;;;12.67;8.67;;;;;;;;4993296;28;45763;-77
2022/04/22 02:58:44;;;;;;;;;10.67;10.67;;;;;;;;4992405;28;45827;-83
2022/04/22 03:01:09;;;;;;;;;11.67;11.00;;;;;;;;4994077;28;45303;-78
2022/04/22 03:03:34;;;;;;;;;11.67;9.33;;;;;;;;4992318;28;45826;-76
2022/04/22 03:06:01;;;;;;;;;10.33;10.00;;;;;;;;4996729;28;45615;-83
2022/04/22 03:08:26;;;;;;;;;10.00;10.00;;;;;;;;4998321;28;44992;-83
2022/04/22 03:10:51;;;;;;;;;12.00;11.00;;;;;;;;4979116;27;45655;-83
2022/04/22 03:13:17;;;;;;;;;9.33;9.00;;;;;;;;4976014;28;46265;-76
2022/04/22 03:15:42;;;;;;;;;12.00;12.00;;;;;;;;4971670;28;46901;-77
2022/04/22 03:18:08;;;;;;;;;11.00;11.00;;;;;;;;4977954;28;45478;-82
2022/04/22 03:20:33;;;;;;;;;11.67;11.00;;;;;;;;4978957;28;44780;-83
2022/04/22 03:23:01;;;;;;;;;15.00;12.33;;;;;;;;4980404;28;45468;-84
2022/04/22 03:25:26;;;;;;;;;10.00;10.00;;;;;;;;4989480;28;46940;-77
2022/04/22 03:27:52;;;;;;;;;12.00;11.33;;;;;;;;4974840;28;45686;-84
2022/04/22 03:30:17;;;;;;;;;17.33;16.33;;;;;;;;4985330;28;45796;-77
2022/04/22 03:32:43;;;;;;;;;23.33;19.67;;;;;;;;4990121;28;45782;-77
2022/04/22 03:35:08;;;;;;;;;20.00;19.67;;;;;;;;4981299;28;47895;-81
2022/04/22 03:37:36;;;;;;;;;33.33;28.33;;;;;;;;4976971;28;45733;-82
2022/04/22 03:40:03;;;;;;;;;37.25;32.50;;;;;;;;4974958;28;45425;-77
2022/04/22 03:42:29;;;;;;;;;49.75;37.75;;;;;;;;5075080;27;45532;-78
2022/04/22 03:44:56;;;;;;;;;33.75;28.25;;;;;;;;5074505;27;45496;-77
2022/04/22 03:47:22;;;;;;;;;40.25;35.50;;;;;;;;5074376;27;45515;-77
2022/04/22 03:49:47;;;;;;;;;48.00;38.50;;;;;;;;5074418;27;45412;-78
2022/04/22 03:52:13;;;;;;;;;52.50;43.25;;;;;;;;5072413;28;45386;-77
2022/04/22 03:54:38;;;;;;;;;45.00;35.50;;;;;;;;5072356;28;48035;-76
2022/04/22 03:59:50;;;;;;;;;52.00;42.00;;;;;;;;5000994;28;45636;-83
2022/04/22 04:02:16;;;;;;;;;48.50;40.00;;;;;;;;4998880;28;45525;-81
2022/04/22 04:04:41;;;;;;;;;43.50;34.75;;;;;;;;5009169;28;46843;-81
2022/04/22 04:07:06;;;;;;;;;56.50;43.00;;;;;;;;4974323;28;45744;-76
2022/04/22 04:17:47;;;;;;;;;45.50;37.25;;;;;;;;4974816;28;45483;-78
2022/04/22 04:23:15;;;;;;;;;49.00;37.50;;;;;;;;4981086;28;45495;-85
2022/04/22 04:25:40;;;;;;;;;16.25;8.50;;;;;;;;4985147;28;46786;-78
2022/04/22 04:28:10;;;;;;;;;41.00;35.50;;;;;;;;4996346;28;45396;-84
2022/04/22 04:30:41;;;;;;;;;42.50;34.50;;;;;;;;5001522;28;45477;-77
2022/04/22 04:33:07;;;;;;;;;37.75;32.50;;;;;;;;4977021;28;45466;-78
2022/04/22 04:35:34;;;;;;;;;36.75;33.25;;;;;;;;5001731;28;45413;-83
2022/04/22 04:37:59;;;;;;;;;39.00;32.75;;;;;;;;5006830;28;45804;-82
2022/04/22 04:40:24;;;;;;;;;40.25;33.25;;;;;;;;4998075;28;45472;-83
2022/04/22 04:42:53;;;;;;;;;34.25;31.00;;;;;;;;5005079;28;45400;-82
2022/04/22 04:45:19;;;;;;;;;43.00;33.25;;;;;;;;5024355;28;46581;-82
2022/04/22 04:47:45;;;;;;;;;46.00;33.50;;;;;;;;5025140;28;44884;-83
2022/04/22 04:50:16;;;;;;;;;42.50;33.25;;;;;;;;4996551;28;45275;-82
2022/04/22 04:52:41;;;;;;;;;40.50;34.50;;;;;;;;5003440;28;44767;-81
2022/04/22 04:55:08;;;;;;;;;34.25;28.75;;;;;;;;5006383;28;47201;-82
2022/04/22 04:57:33;;;;;;;;;38.75;33.00;;;;;;;;5028104;28;45486;-77
2022/04/22 04:59:59;;;;;;;;;38.75;34.00;;;;;;;;4990033;28;45409;-74
2022/04/22 05:02:25;;;;;;;;;41.75;34.75;;;;;;;;4988660;28;45981;-74
2022/04/22 05:04:50;;;;;;;;;38.25;33.25;;;;;;;;4994742;28;45513;-81
2022/04/22 05:07:15;;;;;;;;;46.50;36.25;;;;;;;;5004925;28;44785;-80
2022/04/22 05:09:40;;;;;;;;;44.50;36.00;;;;;;;;5004665;28;45854;-83
2022/04/22 05:12:06;;;;;;;;;43.00;36.00;;;;;;;;4996849;28;45844;-76
2022/04/22 05:14:31;;;;;;;;;42.25;34.75;;;;;;;;4985917;28;45884;-76
2022/04/22 05:16:57;;;;;;;;;37.50;34.25;;;;;;;;4988982;28;45508;-79
2022/04/22 05:19:23;;;;;;;;;43.50;37.25;;;;;;;;4999896;28;45322;-81
2022/04/22 05:21:52;;;;;;;;;48.00;38.00;;;;;;;;4991711;27;45464;-86
2022/04/22 05:24:17;;;;;;;;;41.33;35.67;;;;;;;;4995241;28;45035;-81
2022/04/22 05:26:43;;;;;;;;;48.75;40.50;;;;;;;;5013923;28;45413;-80
2022/04/22 05:32:36;;;;;;;;;53.50;41.50;;;;;;;;4980242;28;45409;-75
2022/04/22 05:35:01;;;;;;;;;45.33;38.00;;;;;;;;4995004;28;45532;-83
2022/04/22 05:37:30;;;;;;;;;51.00;42.00;;;;;;;;5003885;28;45555;-86
2022/04/22 05:39:57;;;;;;;;;38.33;35.67;;;;;;;;5009710;28;44808;-81
2022/04/22 05:42:23;;;;;;;;;47.67;36.33;;;;;;;;5004991;28;45398;-84
2022/04/22 05:44:52;;;;;;;;;40.33;34.33;;;;;;;;5003450;28;46118;-84
2022/04/22 05:47:26;;;;;;;;;44.00;37.67;;;;;;;;5001221;27;45510;-83
2022/04/22 05:50:14;;;;;;;;;51.00;41.25;;;;;;;;5001863;28;45345;-84
2022/04/22 05:53:19;;;;;;;;;50.00;39.75;;;;;;;;4997843;28;45361;-81
2022/04/22 05:55:54;;;;;;;;;54.50;42.75;;;;;;;;4996838;28;46793;-78
2022/04/22 05:58:30;;;;;;;;;54.50;42.00;;;;;;;;4985467;28;45408;-82
2022/04/22 06:07:30;;;;;;;;;47.00;38.67;;;;;;;;4958804;28;45631;-79
2022/04/22 06:13:08;;;;;;;;;47.67;39.00;;;;;;;;5067936;28;45915;-81
2022/04/22 06:18:26;;;;;;;;;36.67;33.00;;;;;;;;5069178;28;45676;-84
2022/04/22 06:20:51;;;;;;;;;39.00;32.00;;;;;;;;5042889;28;45840;-80
2022/04/22 06:23:16;;;;;;;;;27.00;21.00;;;;;;;;4993993;28;45794;-82
2022/04/22 06:25:48;;;;;;;;;25.33;23.33;;;;;;;;4980650;28;45342;-82
2022/04/22 06:28:13;;;;;;;;;29.00;24.33;;;;;;;;4977475;28;45502;-77
2022/04/22 06:30:40;;;;;;;;;19.67;16.33;;;;;;;;4995488;28;45844;-82
2022/04/22 06:33:06;;;;;;;;;23.67;22.67;;;;;;;;4981662;28;45442;-82
2022/04/22 06:35:32;;;;;;;;;22.00;20.00;;;;;;;;4978356;28;45964;-85
2022/04/22 06:37:58;;;;;;;;;25.00;23.33;;;;;;;;4979117;28;47307;-81
2022/04/22 06:45:52;;;;;;;;;26.00;23.00;;;;;;;;4985557;28;45527;-78
2022/04/22 06:48:26;;;;;;;;;24.33;23.00;;;;;;;;5013100;28;46068;-84
2022/04/22 06:50:52;;;;;;;;;27.00;23.67;;;;;;;;4996481;28;45419;-80
2022/04/22 06:53:18;;;;;;;;;26.00;20.67;;;;;;;;4994352;28;45664;-78
2022/04/22 06:55:45;;;;;;;;;25.00;22.00;;;;;;;;4997836;28;45789;-81
2022/04/22 06:58:11;;;;;;;;;28.00;23.00;;;;;;;;4993291;28;46176;-78
2022/04/22 07:00:37;;;;;;;;;28.67;24.33;;;;;;;;4996728;28;45468;-79
2022/04/22 07:03:02;;;;;;;;;20.00;18.67;;;;;;;;4991923;28;45812;-78
2022/04/22 07:05:28;;;;;;;;;20.67;19.00;;;;;;;;4988090;28;45527;-82
2022/04/22 07:07:53;;;;;;;;;21.33;17.67;;;;;;;;4998980;28;45549;-80
2022/04/22 07:10:19;;;;;;;;;20.00;18.33;;;;;;;;4998689;28;45520;-80
2022/04/22 07:12:44;;;;;;;;;21.33;18.00;;;;;;;;4995731;28;45905;-80
2022/04/22 07:15:10;;;;;;;;;20.67;17.67;;;;;;;;4998203;28;45425;-80
2022/04/22 07:17:40;;;;;;;;;17.67;16.67;;;;;;;;4997125;28;45444;-82
2022/04/22 07:20:09;;;;;;;;;14.00;12.67;;;;;;;;4998015;28;45419;-82
2022/04/22 07:22:36;;;;;;;;;13.33;13.33;;;;;;;;4997600;28;45460;-81
2022/04/22 07:25:01;;;;;;;;;13.00;10.67;;;;;;;;4998095;28;45354;-82
2022/04/22 07:27:27;;;;;;;;;12.33;12.33;;;;;;;;4996098;28;46837;-83
2022/04/22 07:29:55;;;;;;;;;9.67;9.67;;;;;;;;4996731;28;45326;-84
2022/04/22 07:32:59;;;;;;;;;8.00;7.00;;;;;;;;4991286;28;45968;-83
2022/04/22 07:35:34;;;;;;;;;14.33;11.67;;;;;;;;5030301;28;45752;-79
2022/04/22 07:38:01;;;;;;;;;13.33;10.00;;;;;;;;5013838;28;45757;-81
2022/04/22 07:40:33;;;;;;;;;12.67;9.67;;;;;;;;4998064;28;45567;-81
2022/04/22 07:49:26;;;;;;;;;13.00;11.67;;;;;;;;5122899;27;45378;-83
2022/04/22 07:52:37;;;;;;;;;;;;;;;;;;;;;
2022/04/22 07:55:23;;;;;;;;;13.00;10.00;;;;;;;;5097997;27;68594;-85
2022/04/22 07:58:25;;;;;;;;;;;;;;;;;;;;;
2022/04/22 08:04:22;;;;;;;;;7.67;7.67;;;;;;;;5101449;27;45845;-80
2022/04/22 08:07:19;;;;;;;;;;;;;;;;;;;;;
2022/04/22 08:09:51;;;;;;;;;11.33;10.67;;;;;;;;5091644;27;74223;-81
2022/04/22 08:12:22;;;;;;;;;13.33;10.67;;;;;;;;5079817;27;45592;-79
2022/04/22 08:14:58;;;;;;;;;12.00;9.33;;;;;;;;5089822;27;45425;-81
2022/04/22 08:17:36;;;;;;;;;12.00;10.00;;;;;;;;5080654;27;45460;-80
2022/04/22 08:20:05;;;;;;;;;10.00;10.00;;;;;;;;5100207;27;45477;-79
2022/04/22 08:22:44;;;;;;;;;11.00;11.00;;;;;;;;5099340;27;45441;-80
2022/04/22 08:28:17;;;;;;;;;15.33;10.67;;;;;;;;5018372;28;45784;-83
2022/04/22 08:31:01;;;;;;;;;11.33;10.67;;;;;;;;5103561;27;45847;-84
2022/04/22 08:37:02;;;;;;;;;11.00;11.00;;;;;;;;5057052;28;45561;-83
2022/04/22 08:40:31;;;;;;;;;;;;;;;;;;;;;
2022/04/22 08:43:13;;;;;;;;;11.00;10.33;;;;;;;;4995127;28;45864;-81
2022/04/22 08:49:58;;;;;;;;;10.33;9.00;;;;;;;;4995299;28;45918;-82
2022/04/22 08:55:20;;;;;;;;;10.33;9.33;;;;;;;;5055572;28;45343;-80
2022/04/22 08:58:02;;;;;;;;;9.67;7.67;;;;;;;;5034419;28;46880;-82
2022/04/22 09:00:59;;;;;;;;;;;;;;;;;;;;;
2022/04/22 09:10:13;;;;;;;;;6.00;6.00;;;;;;;;4989368;28;45948;-83
2022/04/22 09:13:09;;;;;;;;;;;;;;;;;;;;;
2022/04/22 09:19:07;;;;;;;;;10.67;9.33;;;;;;;;5078678;27;45601;-80
2022/04/22 09:28:14;;;;;;;;;8.67;7.33;;;;;;;;5056751;28;45435;-84
2022/04/22 09:34:03;;;;;;;;;7.33;7.33;;;;;;;;4997743;28;45574;-82
2022/04/22 09:43:01;;;;;;;;;8.33;7.33;;;;;;;;4950556;28;45369;-84
2022/04/22 09:58:29;;;;;;;;;6.00;6.00;;;;;;;;5031793;28;45411;-82
2022/04/22 10:01:35;;;;;;;;;8.00;8.00;;;;;;;;5082386;27;44856;-80
2022/04/22 10:05:10;;;;;;;;;;;;;;;;;;;;;
2022/04/22 10:17:12;;;;;;;;;7.00;6.00;;;;;;;;5034066;28;45400;-83
2022/04/22 10:20:01;;;;;;;;;;;;;;;;;;;;;
2022/04/22 10:38:43;;;;;;;;;5.00;5.00;;;;;;;;4868504;28;45587;-82
2022/04/22 10:41:43;;;;;;;;;6.00;4.33;;;;;;;;4899118;28;45608;-84
2022/04/22 10:53:57;;;;;;;;;5.33;5.33;;;;;;;;5007578;22;45558;-72
2022/04/22 10:56:29;;;;;;;;;6.00;6.00;;;;;;;;5115894;27;45874;-71
2022/04/22 10:59:14;;;;;;;;;18.33;17.00;;;;;;;;5105629;27;48010;-73
2022/04/22 11:01:40;;;;;;;;;5.67;5.67;;;;;;;;5115554;27;45774;-72
2022/04/22 11:04:16;;;;;;;;;4.00;4.00;;;;;;;;5113693;27;45606;-70
2022/04/22 11:06:42;;;;;;;;;6.00;5.67;;;;;;;;5096523;27;45945;-72
2022/04/22 11:09:07;;;;;;;;;5.00;5.00;;;;;;;;5109560;27;47212;-71
2022/04/22 11:11:38;;;;;;;;;5.67;4.67;;;;;;;;5114989;27;45927;-71
2022/04/22 11:14:16;;;;;;;;;6.33;6.33;;;;;;;;5115013;27;45537;-72
2022/04/22 11:16:42;;;;;;;;;6.00;6.00;;;;;;;;5114690;27;45501;-72
2022/04/22 11:19:07;;;;;;;;;6.00;6.00;;;;;;;;5116498;27;45598;-75
2022/04/22 11:21:32;;;;;;;;;7.00;6.00;;;;;;;;5118128;27;45876;-74
2022/04/22 11:23:58;;;;;;;;;7.00;7.00;;;;;;;;5125203;27;45446;-74
2022/04/22 11:26:24;;;;;;;;;4.33;4.33;;;;;;;;5132668;27;45796;-75
2022/04/22 11:28:50;;;;;;;;;6.00;6.00;;;;;;;;5127691;27;46081;-74
2022/04/22 11:31:17;;;;;;;;;9.00;6.00;;;;;;;;5106580;27;45830;-74
2022/04/22 11:33:48;;;;;;;;;5.00;4.33;;;;;;;;5135523;27;45334;-74
2022/04/22 11:36:14;;;;;;;;;6.33;5.33;;;;;;;;5149386;27;45877;-74
2022/04/22 11:38:49;;;;;;;;;2.00;2.00;;;;;;;;5158310;27;47056;-74
2022/04/22 11:41:16;;;;;;;;;5.00;5.00;;;;;;;;5096639;27;45453;-75
2022/04/22 11:43:41;;;;;;;;;5.00;5.00;;;;;;;;5115913;27;45718;-75
2022/04/22 11:46:07;;;;;;;;;3.00;3.00;;;;;;;;5125575;27;45621;-75
2022/04/22 11:48:32;;;;;;;;;6.00;6.00;;;;;;;;5130939;27;45658;-74
2022/04/22 11:50:58;;;;;;;;;5.00;5.00;;;;;;;;5111549;27;45951;-74
2022/04/22 11:53:34;;;;;;;;;6.33;4.33;;;;;;;;5106297;27;45807;-74
2022/04/22 11:56:01;;;;;;;;;3.00;3.00;;;;;;;;5130354;27;45330;-74
2022/04/22 11:58:29;;;;;;;;;4.33;4.33;;;;;;;;5130217;27;45584;-74
2022/04/22 12:06:23;;;;;;;;;5.33;4.67;;;;;;;;5126024;27;45837;-74
2022/04/22 12:08:54;;;;;;;;;6.00;5.67;;;;;;;;5120683;27;45747;-74
2022/04/22 12:11:20;;;;;;;;;5.00;5.00;;;;;;;;5126713;27;45460;-74
2022/04/22 12:13:47;;;;;;;;;4.33;4.00;;;;;;;;5130281;27;45229;-73
2022/04/22 12:16:16;;;;;;;;;6.67;5.00;;;;;;;;5113952;27;45730;-73
2022/04/22 12:18:42;;;;;;;;;4.33;4.33;;;;;;;;5115211;27;46490;-74
2022/04/22 12:21:11;;;;;;;;;4.00;3.00;;;;;;;;5115373;27;45634;-74
2022/04/22 12:23:38;;;;;;;;;6.67;6.00;;;;;;;;5096602;27;45465;-74
2022/04/22 12:26:03;;;;;;;;;8.33;5.67;;;;;;;;5129029;27;45382;-73
2022/04/22 12:28:29;;;;;;;;;5.67;4.67;;;;;;;;5121837;27;45570;-73
2022/04/22 12:31:16;;;;;;;;;8.33;5.00;;;;;;;;5105274;27;45832;-75
2022/04/22 12:33:41;;;;;;;;;6.33;4.00;;;;;;;;5128578;27;45717;-72
2022/04/22 12:36:10;;;;;;;;;2.00;2.00;;;;;;;;5096905;27;46114;-73
2022/04/22 12:38:37;;;;;;;;;5.00;3.67;;;;;;;;5121924;27;46123;-74
2022/04/22 12:41:02;;;;;;;;;4.67;2.00;;;;;;;;5122692;27;45425;-73
2022/04/22 12:43:29;;;;;;;;;6.67;3.00;;;;;;;;5131782;27;47166;-71
2022/04/22 12:54:12;;;;;;;;;3.33;2.67;;;;;;;;5135279;27;45679;-72
2022/04/22 12:56:38;;;;;;;;;2.00;2.00;;;;;;;;5125529;27;45399;-72
2022/04/22 12:59:04;;;;;;;;;3.00;3.00;;;;;;;;5114662;27;46143;-73
2022/04/22 13:01:40;;;;;;;;;4.33;3.00;;;;;;;;5114312;27;45711;-73
2022/04/22 13:04:06;;;;;;;;;4.00;4.00;;;;;;;;5128369;27;45522;-71
2022/04/22 13:06:40;;;;;;;;;4.00;3.00;;;;;;;;5139945;27;45339;-71
2022/04/22 13:09:07;;;;;;;;;3.00;3.00;;;;;;;;5052415;27;45348;-73
2022/04/22 13:11:33;;;;;;;;;5.00;3.67;;;;;;;;5098423;27;45533;-73
2022/04/22 13:13:59;;;;;;;;;4.00;3.00;;;;;;;;5115966;27;45739;-74
2022/04/22 13:16:24;;;;;;;;;4.00;4.00;;;;;;;;5114629;27;45376;-73
2022/04/22 13:18:49;;;;;;;;;8.00;4.00;;;;;;;;5119630;27;46479;-72
2022/04/22 13:21:15;;;;;;;;;4.33;4.33;;;;;;;;5121132;27;45391;-73
2022/04/22 13:23:40;;;;;;;;;4.00;4.00;;;;;;;;5136178;27;45647;-70
2022/04/22 13:26:05;;;;;;;;;3.00;3.00;;;;;;;;5117603;27;45779;-72
2022/04/22 13:28:31;;;;;;;;;8.33;3.67;;;;;;;;5117236;27;46805;-74
2022/04/22 13:30:56;;;;;;;;;7.00;4.67;;;;;;;;5134866;27;45568;-72
2022/04/22 13:33:22;;;;;;;;;5.33;4.00;;;;;;;;5133944;27;45290;-71
2022/04/22 13:35:47;;;;;;;;;3.00;3.00;;;;;;;;5116336;27;45305;-70
2022/04/22 13:38:24;;;;;;;;;3.00;3.00;;;;;;;;5130511;27;45507;-71
2022/04/22 13:40:50;;;;;;;;;5.67;4.00;;;;;;;;5132726;27;45459;-72
2022/04/22 13:43:15;;;;;;;;;3.67;3.00;;;;;;;;5130660;27;45887;-72
2022/04/22 13:53:52;;;;;;;;;5.33;4.00;;;;;;;;5113998;27;45333;-73
2022/04/22 13:56:18;;;;;;;;;5.00;4.00;;;;;;;;5102804;27;45622;-72
2022/04/22 13:58:43;;;;;;;;;4.00;4.00;;;;;;;;5116434;27;46987;-75
2022/04/22 14:01:09;;;;;;;;;3.00;3.00;;;;;;;;5134485;27;45303;-74
2022/04/22 14:03:34;;;;;;;;;4.67;4.00;;;;;;;;5131590;27;45450;-74
2022/04/22 14:05:59;;;;;;;;;3.00;3.00;;;;;;;;5134683;27;45706;-75
2022/04/22 14:08:25;;;;;;;;;5.33;4.67;;;;;;;;5134846;27;45358;-74
2022/04/22 14:10:50;;;;;;;;;3.00;3.00;;;;;;;;5120804;27;45551;-75
2022/04/22 14:13:15;;;;;;;;;5.00;5.00;;;;;;;;5113636;27;45397;-75
2022/04/22 14:15:43;;;;;;;;;7.00;4.00;;;;;;;;5113734;27;45468;-74
2022/04/22 14:18:09;;;;;;;;;2.33;2.33;;;;;;;;5118423;27;45644;-74
2022/04/22 14:20:35;;;;;;;;;4.00;4.00;;;;;;;;5102365;27;45781;-74
2022/04/22 14:23:00;;;;;;;;;3.33;3.33;;;;;;;;5125815;27;45464;-73
2022/04/22 14:25:26;;;;;;;;;6.67;4.33;;;;;;;;5125676;27;45731;-75
2022/04/22 14:27:51;;;;;;;;;3.67;3.67;;;;;;;;5112711;27;45533;-74
2022/04/22 14:30:17;;;;;;;;;5.00;4.00;;;;;;;;5113005;27;45619;-76
2022/04/22 14:32:42;;;;;;;;;4.00;4.00;;;;;;;;5121196;27;45326;-74
2022/04/22 14:35:08;;;;;;;;;4.67;4.67;;;;;;;;5121534;27;45493;-72
2022/04/22 14:37:34;;;;;;;;;4.67;4.67;;;;;;;;5113501;27;45349;-71
2022/04/22 14:40:00;;;;;;;;;4.00;4.00;;;;;;;;5113334;27;45696;-72
2022/04/22 14:42:25;;;;;;;;;4.00;4.00;;;;;;;;5105139;27;45531;-70
2022/04/22 14:44:50;;;;;;;;;1.33;1.00;;;;;;;;5129807;27;45788;-69
2022/04/22 14:47:16;;;;;;;;;5.00;5.00;;;;;;;;5118375;27;46743;-73
2022/04/22 14:49:42;;;;;;;;;7.00;4.67;;;;;;;;5130373;27;45392;-67
2022/04/22 14:52:07;;;;;;;;;8.00;6.00;;;;;;;;5130171;27;45860;-68
2022/04/22 14:54:33;;;;;;;;;3.67;3.67;;;;;;;;5129053;27;45727;-71
2022/04/22 14:56:58;;;;;;;;;5.00;5.00;;;;;;;;5126052;27;45908;-72
2022/04/22 14:59:24;;;;;;;;;4.00;4.00;;;;;;;;5113060;27;45566;-73
2022/04/22 15:01:49;;;;;;;;;6.00;5.00;;;;;;;;5103476;27;45396;-72
2022/04/22 15:04:14;;;;;;;;;2.67;2.67;;;;;;;;5131209;27;45722;-73
2022/04/22 15:06:40;;;;;;;;;6.00;6.00;;;;;;;;5124654;27;46168;-72
2022/04/22 15:09:06;;;;;;;;;4.33;2.67;;;;;;;;5119790;22;45924;-82
2022/04/22 15:11:32;;;;;;;;;5.00;4.67;;;;;;;;5072858;27;45414;-84
2022/04/22 15:14:03;;;;;;;;;4.33;3.33;;;;;;;;5085885;27;46019;-84
2022/04/22 15:16:35;;;;;;;;;3.33;3.33;;;;;;;;5074417;27;45843;-83
2022/04/22 15:24:47;;;;;;;;;5.67;4.00;;;;;;;;5092506;27;46044;-84
2022/04/22 15:27:33;;;;;;;;;;;;;;;;;;;;;
2022/04/22 15:30:13;;;;;;;;;;;;;;;;;;;;;
2022/04/22 15:32:39;;;;;;;;;7.33;5.00;;;;;;;;5047631;27;68150;-82
2022/04/22 15:41:29;;;;;;;;;3.00;3.00;;;;;;;;5069397;27;45467;-81
2022/04/22 15:44:02;;;;;;;;;5.67;4.67;;;;;;;;5091789;27;45499;-79
2022/04/22 15:46:29;;;;;;;;;6.33;4.33;;;;;;;;5076688;27;46140;-79
2022/04/22 15:49:02;;;;;;;;;5.00;3.00;;;;;;;;5094506;27;45492;-80
2022/04/22 15:51:42;;;;;;;;;5.00;3.67;;;;;;;;5077361;27;45637;-81
2022/04/22 15:54:07;;;;;;;;;3.33;3.33;;;;;;;;5060771;27;45666;-81
2022/04/22 15:56:34;;;;;;;;;5.00;3.67;;;;;;;;5067293;27;46165;-82
2022/04/22 15:59:18;;;;;;;;;;;;;;;;;;;;;
2022/04/22 16:02:01;;;;;;;;;2.00;2.00;;;;;;;;5085426;27;72257;-82
2022/04/22 16:04:28;;;;;;;;;4.00;4.00;;;;;;;;5088869;27;45510;-82
2022/04/22 16:07:07;;;;;;;;;6.67;4.33;;;;;;;;5057155;27;45930;-81
2022/04/22 16:09:52;;;;;;;;;3.33;3.33;;;;;;;;5068044;27;45984;-85
2022/04/22 16:15:16;;;;;;;;;4.00;3.00;;;;;;;;5097845;27;45809;-83
2022/04/22 16:17:45;;;;;;;;;6.00;6.00;;;;;;;;5092768;27;45532;-83
2022/04/22 16:20:16;;;;;;;;;3.00;3.00;;;;;;;;5065376;28;45501;-81
2022/04/22 16:23:14;;;;;;;;;;;;;;;;;;;;;
2022/04/22 16:29:06;;;;;;;;;4.00;2.33;;;;;;;;5097477;27;45661;-81
2022/04/22 16:31:58;;;;;;;;;5.00;4.00;;;;;;;;5060412;27;45541;-83
2022/04/22 16:38:39;;;;;;;;;4.00;4.00;;;;;;;;4898380;28;45620;-84
2022/04/22 16:50:27;;;;;;;;;4.67;4.67;;;;;;;;4860936;29;45510;-85
2022/04/22 16:59:32;;;;;;;;;7.00;6.00;;;;;;;;4820114;29;46416;-82
2022/04/22 17:02:18;;;;;;;;;4.00;4.00;;;;;;;;4859723;29;45866;-83
2022/04/22 17:04:50;;;;;;;;;4.00;4.00;;;;;;;;4865662;29;45816;-83
2022/04/22 17:07:16;;;;;;;;;5.00;4.67;;;;;;;;4902645;28;47048;-82
2022/04/22 17:09:45;;;;;;;;;4.33;4.00;;;;;;;;5030192;28;45528;-84
2022/04/22 17:12:14;;;;;;;;;7.33;5.00;;;;;;;;5054594;27;45638;-86
2022/04/22 17:27:10;;;;;;;;;;;;;;;;;;;;;
2022/04/22 17:32:53;;;;;;;;;4.00;4.00;;;;;;;;5017848;28;45334;-85
2022/04/22 17:41:46;;;;;;;;;8.00;5.00;;;;;;;;4937462;28;45522;-85
2022/04/22 17:44:30;;;;;;;;;3.67;3.67;;;;;;;;5021345;28;45668;-85
2022/04/22 17:46:55;;;;;;;;;3.67;3.00;;;;;;;;5074698;27;45495;-83
2022/04/22 17:49:22;;;;;;;;;6.33;5.33;;;;;;;;5072227;27;45995;-82
2022/04/22 17:58:37;;;;;;;;;5.00;5.00;;;;;;;;4898278;28;45516;-84
2022/04/22 18:04:52;;;;;;;;;6.33;4.00;;;;;;;;4822006;29;45739;-84
2022/04/22 18:07:58;;;;;;;;;3.00;3.00;;;;;;;;4821574;29;45958;-81
2022/04/22 18:10:27;;;;;;;;;6.33;6.33;;;;;;;;4935874;28;45909;-82
2022/04/22 18:12:56;;;;;;;;;6.00;5.67;;;;;;;;4967899;28;46356;-82
2022/04/22 18:25:22;;;;;;;;;6.67;6.67;;;;;;;;4877821;28;46298;-80
2022/04/22 18:28:04;;;;;;;;;;;;;;;;;;;;;
2022/04/22 18:30:34;;;;;;;;;1.00;0.00;;;;;;;;4965297;28;72396;-83
2022/04/22 18:33:35;;;;;;;;;9.00;7.67;;;;;;;;4974559;28;45667;-81
2022/04/22 18:36:13;;;;;;;;;7.67;7.00;;;;;;;;4936617;28;45705;-82
2022/04/22 18:48:25;;;;;;;;;;;;;;;;;;;;;
2022/04/22 19:06:31;;;;;;;;;8.33;8.33;;;;;;;;4902949;28;45575;-76
2022/04/22 19:09:02;;;;;;;;;12.33;12.33;;;;;;;;4904911;29;45406;-86
2022/04/22 19:11:29;;;;;;;;;13.33;9.67;;;;;;;;4954264;28;45879;-78
2022/04/22 19:13:55;;;;;;;;;7.33;6.33;;;;;;;;4983055;28;45801;-79
2022/04/22 19:16:25;;;;;;;;;8.67;7.00;;;;;;;;4981434;28;46789;-82
2022/04/22 19:18:53;;;;;;;;;10.67;9.33;;;;;;;;5084165;27;45899;-83
2022/04/22 19:21:21;;;;;;;;;9.67;8.00;;;;;;;;5087845;27;45553;-82
2022/04/22 19:23:47;;;;;;;;;9.67;9.67;;;;;;;;5060673;28;46818;-82
2022/04/22 19:26:12;;;;;;;;;8.67;7.67;;;;;;;;5058342;28;45481;-81
2022/04/22 19:28:40;;;;;;;;;10.00;8.00;;;;;;;;5079996;28;45417;-82
2022/04/22 19:31:05;;;;;;;;;9.67;9.33;;;;;;;;5081031;27;45503;-80
2022/04/22 19:33:33;;;;;;;;;8.00;8.00;;;;;;;;5057310;27;46176;-83